Lovell, Maine
Current Conditions -  °F | °C
As of 10:32 AM on Thursday 23 Oct 2014 (Local Time) from KIZG Reporting Station
Light Rain Light Rain  
Wind Chill: 44°   Ceiling: 1200
Heat Index: 48°   Visibility: 4mi
Dew Point: 46°   Wind: 8mph
Humidity: 93%   Direction: 30°NNE
Pressure: 29.85"   Gusts: 20mph
Location:  44.13°N, 70.89°W
Report Text: KIZG 231432Z AUTO 03007G17KT 350V070 4SM -RA BR OVC012 09/08 A2985 RMK AO2 RAE07B11 P0006 T00890078
Loading
Personal Weather Stations






























Interactive Weather Map
Tropical Storm Tracking
New forecast layout! Learn more

10-Day Weather Forecast

Advertisements
Track Severe Weather on mobile